Time;durP1;ratioP1;P1;durP2;ratioP2;P2;SDS_P1;SDS_P2;PMS_P1;PMS_P2;Temp;Humidity;BMP_temperature;BMP_pressure;BME280_temperature;BME280_humidity;BME280_pressure;Samples;Min_cycle;Max_cycle;Signal;HPM_P1;HPM_P2
2022/06/26 00:00:43;;;;;;;8.68;4.70;;;;;;;19.52;94.76;101076.91;5049492;28;20044;-45
2022/06/26 00:03:30;;;;;;;7.75;4.63;;;;;;;19.50;94.94;101079.97;5037325;28;20099;-48
2022/06/26 00:06:18;;;;;;;6.63;4.22;;;;;;;19.52;95.56;101077.72;5041340;28;20059;-48
2022/06/26 00:09:08;;;;;;;6.68;3.97;;;;;;;19.54;95.74;101088.47;5053907;28;20042;-48
2022/06/26 00:11:56;;;;;;;8.55;4.97;;;;;;;19.55;96.03;101090.91;5040511;28;20053;-48
2022/06/26 00:14:44;;;;;;;8.48;5.07;;;;;;;19.51;96.45;101097.41;5041352;28;20056;-48
2022/06/26 00:17:31;;;;;;;8.23;5.60;;;;;;;19.45;97.72;101088.44;5054715;28;20053;-48
2022/06/26 00:20:20;;;;;;;9.48;5.40;;;;;;;19.41;98.41;101084.69;5054072;28;20048;-46
2022/06/26 00:23:08;;;;;;;9.75;5.85;;;;;;;19.39;98.20;101078.69;5056291;28;20052;-46
2022/06/26 00:25:56;;;;;;;11.32;6.10;;;;;;;19.29;98.64;101084.47;5041618;28;20041;-45
2022/06/26 00:28:43;;;;;;;11.77;6.22;;;;;;;19.27;99.89;101095.06;5054759;28;20056;-48
2022/06/26 00:31:31;;;;;;;9.68;5.70;;;;;;;19.31;99.94;101098.78;5038192;28;20307;-46
2022/06/26 00:34:03;;;;;;;10.73;6.45;;;;;;;19.34;99.12;101103.69;5074465;28;20450;-50
2022/06/26 00:36:51;;;;;;;11.75;6.35;;;;;;;19.34;98.62;101093.44;5061045;28;20110;-46
2022/06/26 00:39:38;;;;;;;11.07;6.57;;;;;;;19.35;98.03;101106.13;5047964;28;20056;-44
2022/06/26 00:42:27;;;;;;;10.68;6.50;;;;;;;19.33;97.97;101113.91;5044356;28;20041;-45
2022/06/26 00:45:14;;;;;;;9.95;6.65;;;;;;;19.33;97.96;101118.63;5055898;28;20041;-43
2022/06/26 00:48:02;;;;;;;10.25;6.03;;;;;;;19.31;98.00;101121.72;5054492;28;20053;-44
2022/06/26 00:50:51;;;;;;;9.35;6.25;;;;;;;19.32;98.08;101122.53;5059957;28;20380;-43
2022/06/26 00:53:39;;;;;;;8.85;5.75;;;;;;;19.32;97.87;101117.00;5060102;28;20052;-45
2022/06/26 00:56:27;;;;;;;10.63;6.65;;;;;;;19.32;97.95;101123.34;5058794;28;20514;-45
2022/06/26 00:59:15;;;;;;;9.50;6.43;;;;;;;19.32;98.22;101130.81;5074730;28;20094;-47
2022/06/26 01:02:03;;;;;;;10.77;6.22;;;;;;;19.30;98.08;101131.13;5070517;28;20094;-48
2022/06/26 01:04:51;;;;;;;10.40;5.65;;;;;;;19.29;98.26;101128.69;5074828;28;20052;-47
2022/06/26 01:07:40;;;;;;;8.38;5.22;;;;;;;19.32;98.47;101134.41;5029482;28;20127;-46
2022/06/26 01:10:28;;;;;;;8.75;4.72;;;;;;;19.33;98.22;101143.50;5039007;28;20178;-49
2022/06/26 01:13:16;;;;;;;8.20;5.65;;;;;;;19.31;97.98;101129.19;5052336;28;20070;-49
2022/06/26 01:16:04;;;;;;;9.30;5.57;;;;;;;19.30;98.06;101135.84;5036797;28;20045;-50
2022/06/26 01:18:54;;;;;;;9.25;5.60;;;;;;;19.27;98.12;101142.84;5051983;28;20127;-49
2022/06/26 01:21:40;;;;;;;9.93;6.38;;;;;;;19.27;98.15;101142.03;5041792;28;20040;-48
2022/06/26 01:24:09;;;;;;;9.15;5.40;;;;;;;19.25;98.00;101133.25;5022108;28;20049;-48
2022/06/26 01:26:56;;;;;;;10.23;5.63;;;;;;;19.26;97.89;101146.72;5039259;28;20397;-45
2022/06/26 01:29:44;;;;;;;8.32;4.72;;;;;;;19.27;97.53;101150.31;5056978;28;20377;-47
2022/06/26 01:32:31;;;;;;;10.80;5.90;;;;;;;19.27;97.53;101147.56;5050309;28;20041;-46
2022/06/26 01:35:19;;;;;;;10.23;5.38;;;;;;;19.25;97.72;101155.34;5039844;28;20045;-48
2022/06/26 01:38:21;;;;;;;9.23;5.68;;;;;;;19.23;98.04;101152.06;5049351;28;20053;-44
2022/06/26 01:41:09;;;;;;;10.32;5.65;;;;;;;19.22;98.27;101148.50;5052190;28;20048;-49
2022/06/26 01:43:58;;;;;;;10.57;6.38;;;;;;;19.20;98.52;101148.00;5038874;28;20053;-48
2022/06/26 01:46:26;;;;;;;11.05;6.53;;;;;;;19.18;99.02;101149.47;5051298;28;20037;-45
2022/06/26 01:49:15;;;;;;;8.35;5.70;;;;;;;19.17;98.79;101148.66;5050354;28;20450;-48
2022/06/26 01:52:03;;;;;;;8.32;5.45;;;;;;;19.18;98.45;101152.22;5042231;28;20041;-45
2022/06/26 01:54:51;;;;;;;9.55;5.75;;;;;;;19.16;98.80;101145.03;5039459;28;20045;-47
2022/06/26 01:57:39;;;;;;;9.25;5.47;;;;;;;19.22;97.44;101155.94;5041687;28;20046;-45
2022/06/26 02:00:40;;;;;;;9.25;6.72;;;;;;;19.23;96.81;101152.06;5037372;28;20057;-45
2022/06/26 02:03:28;;;;;;;9.85;6.80;;;;;;;19.19;97.21;101138.06;5052183;28;20045;-46
2022/06/26 02:06:16;;;;;;;12.93;7.25;;;;;;;19.21;96.62;101146.06;5032517;28;20052;-45
2022/06/26 02:09:04;;;;;;;11.55;8.25;;;;;;;19.12;97.43;101140.47;5052178;28;20048;-45
2022/06/26 02:15:01;;;;;;;11.20;8.13;;;;;;;19.07;97.67;101126.81;5052071;28;20416;-44
2022/06/26 02:17:49;;;;;;;13.27;9.82;;;;;;;18.98;97.65;101121.25;5048539;28;20499;-44
2022/06/26 02:20:37;;;;;;;10.45;8.02;;;;;;;18.95;97.73;101119.13;5051192;28;20056;-43
2022/06/26 02:23:25;;;;;;;12.57;10.25;;;;;;;18.92;97.47;101125.28;5053738;28;20525;-43
2022/06/26 02:26:13;;;;;;;15.07;10.70;;;;;;;18.86;98.07;101121.03;5038078;28;20049;-44
2022/06/26 02:29:00;;;;;;;12.93;8.52;;;;;;;18.85;97.07;101122.97;5040915;28;20037;-44
2022/06/26 02:31:49;;;;;;;12.10;10.15;;;;;;;18.81;97.41;101118.38;5052405;28;20091;-46
2022/06/26 02:34:37;;;;;;;12.15;9.73;;;;;;;18.80;97.66;101119.53;5051153;28;20510;-43
2022/06/26 02:37:24;;;;;;;13.45;10.15;;;;;;;18.78;97.75;101124.56;5031444;28;20040;-43
2022/06/26 02:40:12;;;;;;;13.75;9.55;;;;;;;18.77;97.50;101133.97;5038500;28;20551;-45
2022/06/26 02:43:00;;;;;;;12.18;9.70;;;;;;;18.78;97.65;101124.56;5032346;28;20044;-43
2022/06/26 02:45:49;;;;;;;11.85;8.50;;;;;;;18.84;97.04;101128.81;5029911;28;20045;-45
2022/06/26 02:48:37;;;;;;;9.63;7.25;;;;;;;18.88;96.50;101146.38;5043413;28;20052;-44
2022/06/26 02:51:26;;;;;;;11.32;9.23;;;;;;;18.90;96.06;101155.16;5024338;28;20045;-47
2022/06/26 02:54:14;;;;;;;14.95;11.55;;;;;;;18.86;96.21;101165.22;5053447;28;20110;-46
2022/06/26 02:57:02;;;;;;;13.60;9.63;;;;;;;18.86;96.22;101165.22;5047359;28;20048;-45
2022/06/26 02:59:50;;;;;;;13.63;10.13;;;;;;;18.81;96.08;101168.09;5051881;28;20063;-44
2022/06/26 03:02:41;;;;;;;10.45;9.00;;;;;;;18.87;95.37;101164.06;5052041;28;20056;-45
2022/06/26 03:05:30;;;;;;;15.30;12.98;;;;;;;18.83;95.60;101171.34;5045165;28;20056;-49
2022/06/26 03:08:18;;;;;;;13.02;10.77;;;;;;;18.77;95.74;101164.34;5049167;28;20056;-50
2022/06/26 03:11:06;;;;;;;14.48;10.93;;;;;;;18.79;95.95;101178.66;5052592;28;20107;-48
2022/06/26 03:13:53;;;;;;;16.20;12.27;;;;;;;18.76;95.98;101180.09;5040802;28;20081;-48
2022/06/26 03:16:41;;;;;;;14.40;12.52;;;;;;;18.77;95.81;101178.97;5022093;28;20083;-46
2022/06/26 03:19:29;;;;;;;15.60;12.52;;;;;;;18.69;95.78;101177.75;5048029;28;20049;-47
2022/06/26 03:22:17;;;;;;;14.73;10.35;;;;;;;18.71;95.17;101172.72;5051993;28;20037;-47
2022/06/26 03:25:06;;;;;;;12.50;9.55;;;;;;;18.70;94.45;101176.59;5037622;28;20491;-49
2022/06/26 03:27:36;;;;;;;15.20;11.45;;;;;;;18.67;93.83;101185.50;5049717;28;20061;-45
2022/06/26 03:30:24;;;;;;;14.85;10.68;;;;;;;18.65;93.84;101189.72;5050803;28;20470;-46
2022/06/26 03:33:12;;;;;;;15.40;10.30;;;;;;;18.63;93.99;101198.31;5052517;28;20495;-45
2022/06/26 03:35:59;;;;;;;15.60;11.15;;;;;;;18.60;93.93;101201.69;5037496;28;20045;-50
2022/06/26 03:38:47;;;;;;;12.52;9.43;;;;;;;18.57;94.08;101207.00;5052664;28;20133;-48
2022/06/26 03:41:35;;;;;;;15.75;11.52;;;;;;;18.63;93.95;101208.53;5048934;28;20049;-47
2022/06/26 03:44:24;;;;;;;14.35;10.15;;;;;;;18.57;93.60;101210.63;5053656;28;20053;-48
2022/06/26 03:47:05;;;;;;;12.07;7.47;;;;;;;18.55;92.29;101206.53;5052010;28;20041;-46
2022/06/26 03:49:54;;;;;;;13.80;8.02;;;;;;;18.54;91.14;101225.00;5042268;28;20073;-46
2022/06/26 03:52:42;;;;;;;9.27;6.13;;;;;;;18.48;91.21;101240.06;5055545;28;20047;-48
2022/06/26 03:55:30;;;;;;;11.27;7.32;;;;;;;18.48;90.29;101240.06;5041153;28;20053;-48
2022/06/26 03:58:18;;;;;;;12.25;7.30;;;;;;;18.39;90.44;101228.13;5044466;28;20102;-44
2022/06/26 04:01:06;;;;;;;12.10;7.15;;;;;;;18.36;90.51;101245.31;5045114;28;20099;-44
2022/06/26 04:03:53;;;;;;;10.95;6.15;;;;;;;18.35;90.59;101243.66;5040006;28;20081;-44
2022/06/26 04:06:41;;;;;;;11.68;6.95;;;;;;;18.37;90.84;101250.50;5043316;28;20495;-44
2022/06/26 04:09:41;;;;;;;13.43;7.30;;;;;;;18.34;90.63;101248.38;5049857;28;20068;-48
2022/06/26 04:12:30;;;;;;;11.80;6.18;;;;;;;18.34;90.34;101253.09;5046907;28;20042;-50
2022/06/26 04:15:18;;;;;;;9.77;5.82;;;;;;;18.33;90.67;101248.69;5055269;28;20538;-49
2022/06/26 04:18:06;;;;;;;9.27;5.32;;;;;;;18.29;90.80;101241.03;5039749;28;20373;-46
2022/06/26 04:20:55;;;;;;;12.52;6.47;;;;;;;18.34;90.42;101233.78;5054052;28;20511;-47
2022/06/26 04:23:42;;;;;;;12.70;6.30;;;;;;;18.31;90.88;101230.50;5039064;28;20045;-48
2022/06/26 04:26:37;;;;;;;12.25;6.82;;;;;;;18.36;90.74;101234.28;5044260;28;20045;-48
2022/06/26 04:29:26;;;;;;;10.15;5.88;;;;;;;18.37;90.83;101249.69;5041643;28;20518;-49
2022/06/26 04:32:14;;;;;;;9.60;5.25;;;;;;;18.44;90.99;101247.34;5049424;28;20110;-45
2022/06/26 04:35:04;;;;;;;10.73;5.53;;;;;;;18.47;91.02;101249.47;5041186;28;20075;-46
2022/06/26 04:37:52;;;;;;;10.70;5.72;;;;;;;18.46;90.82;101251.41;5046213;28;20052;-46
2022/06/26 04:40:41;;;;;;;9.38;5.70;;;;;;;18.45;90.95;101262.78;5048787;28;20132;-46
2022/06/26 04:43:28;;;;;;;10.57;6.72;;;;;;;18.43;90.88;101265.03;5034740;28;20103;-49
2022/06/26 04:46:17;;;;;;;13.93;6.78;;;;;;;18.43;90.56;101279.63;5046777;28;20041;-50
2022/06/26 04:49:06;;;;;;;10.13;6.40;;;;;;;18.39;90.76;101286.88;5052559;28;20045;-47
2022/06/26 04:51:46;;;;;;;9.20;5.90;;;;;;;18.40;90.81;101287.69;5037457;28;20399;-44
2022/06/26 04:54:50;;;;;;;10.68;6.03;;;;;;;18.40;90.95;101285.78;5053815;28;20126;-48
2022/06/26 04:57:38;;;;;;;10.05;5.53;;;;;;;18.34;90.82;101286.19;5051056;28;20053;-48
2022/06/26 05:00:26;;;;;;;9.43;5.72;;;;;;;18.33;91.42;101284.53;5050942;28;20053;-51
2022/06/26 05:03:46;;;;;;;11.65;6.00;;;;;;;18.35;91.03;101287.81;5046904;28;20071;-48
2022/06/26 05:06:50;;;;;;;10.07;5.60;;;;;;;18.38;90.76;101298.25;5040130;28;20120;-49
2022/06/26 05:09:44;;;;;;;9.57;6.13;;;;;;;18.42;90.26;101300.06;5050429;28;20041;-47
2022/06/26 05:12:32;;;;;;;9.15;5.35;;;;;;;18.40;90.44;101301.50;5030859;28;20518;-48
2022/06/26 05:15:48;;;;;;;6.90;4.32;;;;;;;18.43;90.43;101295.38;5052259;28;20122;-48
2022/06/26 05:18:37;;;;;;;10.70;5.13;;;;;;;18.40;90.75;101298.72;5025777;28;20042;-47
2022/06/26 05:21:08;;;;;;;9.68;5.43;;;;;;;18.44;90.42;101297.00;5035108;28;20119;-47
2022/06/26 05:24:00;;;;;;;9.27;5.40;;;;;;;18.44;89.30;101302.53;5060111;28;20041;-46
2022/06/26 05:26:48;;;;;;;8.38;4.63;;;;;;;18.46;89.27;101295.56;5049160;28;20041;-48
2022/06/26 05:29:16;;;;;;;8.98;5.22;;;;;;;18.43;88.22;101295.38;5053348;28;20037;-49
2022/06/26 05:32:04;;;;;;;10.25;4.75;;;;;;;18.48;88.25;101292.50;5041914;28;20522;-47
2022/06/26 05:34:35;;;;;;;8.57;4.90;;;;;;;18.55;87.54;101298.41;5036766;28;20152;-46
2022/06/26 05:37:23;;;;;;;9.35;4.63;;;;;;;18.56;87.08;101294.50;5053160;28;20503;-45
2022/06/26 05:40:11;;;;;;;7.78;4.35;;;;;;;18.58;87.11;101297.78;5053838;28;20041;-44
2022/06/26 05:43:01;;;;;;;12.07;5.60;;;;;;;18.56;86.57;101300.03;5051939;28;20041;-46
2022/06/26 05:45:49;;;;;;;10.25;4.85;;;;;;;18.49;86.53;101303.22;5039261;28;20404;-43
2022/06/26 05:48:46;;;;;;;9.90;5.22;;;;;;;18.49;86.92;101305.16;5039443;28;20439;-48
2022/06/26 05:51:57;;;;;;;10.30;5.38;;;;;;;18.48;86.66;101320.09;5030972;28;20041;-49
2022/06/26 05:54:49;;;;;;;11.90;5.40;;;;;;;18.49;86.64;101335.50;5047921;28;20192;-46
2022/06/26 05:57:58;;;;;;;10.32;5.13;;;;;;;18.53;86.86;101328.25;5051212;28;20495;-44
2022/06/26 06:01:09;;;;;;;9.23;4.70;;;;;;;18.57;86.15;101339.47;5053904;28;20076;-47
2022/06/26 06:03:56;;;;;;;10.75;5.80;;;;;;;18.64;85.70;101349.00;5052368;28;20103;-47
2022/06/26 06:06:28;;;;;;;11.23;5.15;;;;;;;18.68;85.86;101358.28;5033888;28;20033;-51
2022/06/26 06:09:15;;;;;;;9.32;5.28;;;;;;;18.63;85.98;101361.16;5048255;28;20045;-44
2022/06/26 06:12:03;;;;;;;14.48;5.32;;;;;;;18.69;85.57;101357.16;5052955;28;20127;-46
2022/06/26 06:14:51;;;;;;;9.95;4.78;;;;;;;18.70;85.46;101356.03;5037484;28;20136;-49
2022/06/26 06:17:44;;;;;;;8.35;4.63;;;;;;;18.66;85.04;101359.72;5055692;28;20098;-48
2022/06/26 06:20:31;;;;;;;8.00;4.22;;;;;;;18.65;85.55;101363.63;5032587;28;20131;-44
2022/06/26 06:23:19;;;;;;;9.45;5.03;;;;;;;18.65;85.61;101364.41;5049326;28;20056;-44
2022/06/26 06:26:07;;;;;;;12.15;4.80;;;;;;;18.67;85.88;101364.94;5043359;28;20068;-46
2022/06/26 06:28:55;;;;;;;11.77;5.10;;;;;;;18.76;85.72;101369.72;5039170;28;20442;-44
2022/06/26 06:31:43;;;;;;;9.57;4.72;;;;;;;18.87;84.71;101360.91;5052334;28;20045;-48
2022/06/26 06:34:31;;;;;;;7.35;4.15;;;;;;;18.93;83.84;101356.94;5046169;28;20506;-48
2022/06/26 06:37:21;;;;;;;12.13;5.95;;;;;;;18.89;83.82;101357.88;5044518;28;20523;-49
2022/06/26 06:40:13;;;;;;;7.55;4.32;;;;;;;18.85;84.36;101365.13;5050765;28;20056;-47
2022/06/26 06:43:01;;;;;;;9.23;4.88;;;;;;;18.85;84.81;101356.84;5050113;28;20507;-50
2022/06/26 06:46:12;;;;;;;9.70;5.30;;;;;;;18.86;84.28;101364.00;5051314;28;20045;-46
2022/06/26 06:49:05;;;;;;;12.90;5.80;;;;;;;18.90;83.70;101368.56;5034283;28;20048;-50
2022/06/26 06:51:57;;;;;;;9.68;4.63;;;;;;;18.95;83.08;101381.47;5053091;28;20103;-49
2022/06/26 06:54:44;;;;;;;9.63;4.60;;;;;;;18.99;83.36;101385.25;5032437;28;20404;-48
2022/06/26 06:57:32;;;;;;;8.45;4.80;;;;;;;19.05;82.99;101389.53;5024100;28;20049;-50
2022/06/26 07:00:20;;;;;;;10.85;4.78;;;;;;;19.11;82.17;101392.97;5052011;28;20045;-52
2022/06/26 07:03:08;;;;;;;11.55;4.95;;;;;;;19.12;82.13;101400.97;5050993;28;20068;-55
2022/06/26 07:05:57;;;;;;;9.82;4.93;;;;;;;19.18;81.72;101403.59;5046679;28;20553;-50
2022/06/26 07:08:44;;;;;;;10.65;4.78;;;;;;;19.21;81.74;101412.06;5049030;28;20041;-49
2022/06/26 07:11:33;;;;;;;10.93;5.05;;;;;;;19.22;81.53;101415.66;5052668;28;20045;-50
2022/06/26 07:14:20;;;;;;;11.73;5.78;;;;;;;19.19;81.61;101427.31;5047400;28;20144;-52
2022/06/26 07:17:08;;;;;;;10.13;5.55;;;;;;;19.17;81.65;101441.47;5050006;28;20418;-48
2022/06/26 07:20:01;;;;;;;11.80;5.85;;;;;;;19.11;81.89;101443.50;5046970;28;20071;-49
2022/06/26 07:22:51;;;;;;;10.82;4.90;;;;;;;19.14;81.94;101442.88;5042812;28;20045;-47
2022/06/26 07:25:50;;;;;;;28.02;8.50;;;;;;;19.22;81.62;101449.63;5026555;28;20051;-50
2022/06/26 07:28:39;;;;;;;25.92;10.82;;;;;;;19.25;81.48;101448.19;5044578;28;20048;-50
2022/06/26 07:31:27;;;;;;;18.90;7.15;;;;;;;19.31;81.19;101452.47;5047541;28;20509;-49
2022/06/26 07:34:18;;;;;;;13.88;5.78;;;;;;;19.30;80.97;101442.56;5050734;28;20152;-48
2022/06/26 07:37:06;;;;;;;11.77;6.05;;;;;;;19.32;81.45;101432.00;5037486;28;20119;-51
2022/06/26 07:39:53;;;;;;;18.63;6.93;;;;;;;19.35;80.52;101431.38;5049367;28;20048;-49
2022/06/26 07:42:41;;;;;;;18.65;6.85;;;;;;;19.35;80.26;101425.84;5050001;28;20044;-54
2022/06/26 07:45:29;;;;;;;13.02;6.22;;;;;;;19.31;80.99;101431.19;5051778;28;20041;-54
2022/06/26 07:48:22;;;;;;;14.70;6.22;;;;;;;19.27;81.13;101443.19;5051898;28;20048;-55
2022/06/26 07:51:14;;;;;;;13.65;6.05;;;;;;;19.24;81.25;101457.59;5040391;28;20041;-55
2022/06/26 07:54:02;;;;;;;10.13;5.68;;;;;;;19.22;80.97;101459.84;5052882;28;20068;-51
2022/06/26 07:56:50;;;;;;;10.85;5.28;;;;;;;19.19;80.65;101441.94;5052862;28;20045;-49
2022/06/26 07:59:37;;;;;;;12.85;5.65;;;;;;;19.09;79.97;101439.44;5052979;28;20403;-50
2022/06/26 08:02:25;;;;;;;9.85;5.18;;;;;;;19.07;80.56;101441.69;5051016;28;20499;-52
2022/06/26 08:05:13;;;;;;;11.23;4.97;;;;;;;19.07;80.61;101456.31;5053199;28;20053;-49
2022/06/26 08:08:00;;;;;;;10.32;5.07;;;;;;;19.11;80.22;101457.31;5053161;28;20053;-50
2022/06/26 08:10:54;;;;;;;11.10;5.50;;;;;;;19.12;80.30;101467.25;5052884;28;20119;-54
2022/06/26 08:13:41;;;;;;;10.10;5.22;;;;;;;19.11;80.26;101465.59;5047549;28;20045;-53
2022/06/26 08:16:29;;;;;;;10.43;4.90;;;;;;;19.16;80.75;101473.78;5052096;28;20044;-50
2022/06/26 08:19:17;;;;;;;10.45;5.50;;;;;;;19.16;81.46;101473.78;5052344;28;20045;-50
2022/06/26 08:22:05;;;;;;;11.25;5.28;;;;;;;19.15;80.80;101469.41;5047399;28;20476;-48
2022/06/26 08:24:52;;;;;;;15.40;6.10;;;;;;;19.10;80.95;101474.22;5055440;28;20395;-45
2022/06/26 08:27:40;;;;;;;14.52;5.97;;;;;;;19.03;81.23;101471.88;5056147;28;20041;-46
2022/06/26 08:30:27;;;;;;;10.88;5.15;;;;;;;19.04;81.60;101464.41;5056434;28;20403;-48
2022/06/26 08:33:04;;;;;;;14.38;4.97;;;;;;;19.11;81.50;101482.19;5027927;28;20044;-49
2022/06/26 08:35:51;;;;;;;12.02;5.55;;;;;;;19.11;80.97;101475.84;5056130;28;20048;-47
2022/06/26 08:38:39;;;;;;;10.90;4.75;;;;;;;19.14;81.22;101484.31;5055785;28;20052;-47
2022/06/26 08:41:28;;;;;;;11.82;5.20;;;;;;;19.16;81.07;101479.31;5038345;28;20055;-49
2022/06/26 08:44:16;;;;;;;10.15;4.57;;;;;;;19.18;81.50;101467.16;5055220;28;20048;-49
2022/06/26 08:47:04;;;;;;;8.18;4.40;;;;;;;19.22;80.93;101462.59;5055723;28;20049;-47
2022/06/26 08:49:52;;;;;;;8.73;4.40;;;;;;;19.31;79.32;101475.41;5041215;28;20029;-48
2022/06/26 08:52:21;;;;;;;11.13;4.38;;;;;;;19.28;78.31;101475.19;5054292;28;20049;-50
2022/06/26 08:55:09;;;;;;;7.05;3.63;;;;;;;19.29;78.92;101483.19;5055750;28;20047;-49
2022/06/26 08:57:57;;;;;;;7.65;4.05;;;;;;;19.30;78.53;101486.75;5040918;28;20407;-48
2022/06/26 09:00:38;;;;;;;8.30;3.95;;;;;;;19.32;78.73;101490.03;5055068;28;20060;-48
2022/06/26 09:03:25;;;;;;;7.05;3.78;;;;;;;19.33;79.17;101505.47;5054992;28;20373;-46
2022/06/26 09:06:13;;;;;;;9.52;4.00;;;;;;;19.35;78.56;101495.75;5055343;28;20057;-46
2022/06/26 09:09:00;;;;;;;7.43;3.88;;;;;;;19.37;78.41;101484.38;5055298;28;20056;-46
2022/06/26 09:11:48;;;;;;;7.53;3.90;;;;;;;19.36;78.54;101493.78;5033803;28;20041;-47
2022/06/26 09:14:36;;;;;;;9.85;4.53;;;;;;;19.34;78.56;101498.84;5051003;28;20049;-46
2022/06/26 09:17:24;;;;;;;8.82;4.25;;;;;;;19.36;79.17;101493.78;5055620;28;20053;-48
2022/06/26 09:20:11;;;;;;;8.27;3.80;;;;;;;19.37;78.97;101490.72;5051013;28;20088;-46
2022/06/26 09:23:00;;;;;;;6.75;3.63;;;;;;;19.38;79.33;101486.00;5048178;28;20510;-48
2022/06/26 09:25:48;;;;;;;8.63;4.28;;;;;;;19.38;79.49;101486.00;5043817;28;20156;-47
2022/06/26 09:28:35;;;;;;;7.70;4.05;;;;;;;19.35;79.23;101487.44;5054826;28;20040;-46
2022/06/26 09:31:23;;;;;;;7.07;3.40;;;;;;;19.41;78.93;101493.69;5043690;28;20042;-47
2022/06/26 09:34:26;;;;;;;7.13;4.00;;;;;;;19.40;78.61;101489.28;5054118;28;20129;-49
2022/06/26 09:37:14;;;;;;;7.28;3.90;;;;;;;19.39;78.22;101484.91;5054565;28;20041;-48
2022/06/26 09:40:23;;;;;;;8.25;3.90;;;;;;;19.35;77.50;101476.41;5049683;28;20102;-50
2022/06/26 09:43:11;;;;;;;10.55;3.85;;;;;;;19.38;77.81;101477.72;5054430;28;20046;-49
2022/06/26 09:46:09;;;;;;;6.63;3.53;;;;;;;19.41;77.91;101490.94;5039583;28;20045;-47
2022/06/26 09:48:58;;;;;;;6.15;3.22;;;;;;;19.40;77.02;101503.09;5039148;28;20045;-49
2022/06/26 09:51:46;;;;;;;7.57;3.40;;;;;;;19.49;76.82;101503.19;5044002;28;20095;-49
2022/06/26 09:54:33;;;;;;;8.85;3.42;;;;;;;19.47;75.86;101509.03;5048206;28;20056;-49
2022/06/26 09:57:21;;;;;;;7.70;3.50;;;;;;;19.48;75.84;101498.78;5023743;28;20052;-50
2022/06/26 09:59:55;;;;;;;5.53;3.03;;;;;;;19.47;75.90;101489.66;5049399;28;20049;-52
2022/06/26 10:09:01;;;;;;;6.93;3.03;;;;;;;19.47;76.56;101514.53;5044352;28;20044;-51
2022/06/26 10:11:49;;;;;;;6.38;3.03;;;;;;;19.51;76.67;101512.00;5051411;28;20037;-51
2022/06/26 10:14:41;;;;;;;7.05;3.05;;;;;;;19.55;76.97;101513.81;5036206;28;20120;-49
2022/06/26 10:17:34;;;;;;;7.07;3.30;;;;;;;19.57;76.56;101522.59;5053751;28;20060;-48
2022/06/26 10:20:23;;;;;;;6.78;3.38;;;;;;;19.60;76.64;101523.91;5049719;28;20504;-47
2022/06/26 10:23:10;;;;;;;9.07;3.60;;;;;;;19.65;76.99;101531.28;5053552;28;20041;-53
2022/06/26 10:25:58;;;;;;;6.25;3.15;;;;;;;19.71;77.06;101513.47;5053133;28;20049;-51
2022/06/26 10:29:02;;;;;;;8.10;3.40;;;;;;;19.70;76.86;101537.56;5053228;28;20045;-52
2022/06/26 10:31:50;;;;;;;6.78;3.33;;;;;;;19.77;77.10;101537.09;5052836;28;20056;-53
2022/06/26 10:34:38;;;;;;;9.88;3.80;;;;;;;19.75;77.35;101531.91;5053331;28;20045;-50
2022/06/26 10:37:25;;;;;;;6.45;2.72;;;;;;;19.81;76.84;101532.59;5052894;28;20060;-51
2022/06/26 10:43:52;;;;;;;4.00;2.67;;;;;;;19.84;75.21;101523.66;5053335;28;20059;-51
2022/06/26 10:46:48;;;;;;;10.00;3.03;;;;;;;19.81;74.92;101532.59;5053195;28;20052;-53
2022/06/26 10:49:44;;;;;;;;;;;;;;;19.80;74.35;101525.44;5052417;28;20045;-48
2022/06/26 10:52:32;;;;;;;7.20;3.03;;;;;;;19.78;74.59;101536.00;5053186;28;19924;-49
2022/06/26 10:55:20;;;;;;;8.30;3.40;;;;;;;19.77;74.97;101534.34;5052920;28;20045;-50
2022/06/26 10:58:08;;;;;;;6.90;3.13;;;;;;;19.77;75.05;101537.09;5050537;28;20040;-50
2022/06/26 11:01:01;;;;;;;4.95;2.78;;;;;;;19.83;75.03;101535.88;5035647;28;20549;-53
2022/06/26 11:03:49;;;;;;;6.97;3.60;;;;;;;19.89;75.12;101542.06;5038129;28;20415;-55
2022/06/26 11:06:42;;;;;;;10.32;4.03;;;;;;;19.93;75.84;101535.59;5052476;28;20488;-52
2022/06/26 11:09:29;;;;;;;7.65;3.72;;;;;;;19.88;74.46;101538.50;5047310;28;20053;-54
2022/06/26 11:12:15;;;;;;;7.70;3.35;;;;;;;19.86;72.19;101529.69;5025504;28;20068;-54
2022/06/26 11:15:03;;;;;;;6.97;3.05;;;;;;;19.86;72.03;101531.66;5052555;28;20446;-48
2022/06/26 11:17:54;;;;;;;7.97;3.30;;;;;;;19.89;72.27;101529.09;5052829;28;20045;-51
2022/06/26 11:20:49;;;;;;;9.35;2.85;;;;;;;19.95;73.55;101529.78;5033723;28;20041;-52
2022/06/26 11:23:38;;;;;;;5.13;2.72;;;;;;;19.98;73.30;101527.19;5052922;28;20041;-50
2022/06/26 11:26:27;;;;;;;8.27;3.83;;;;;;;19.98;70.37;101518.06;4728950;28;10000605;-50
2022/06/26 11:29:15;;;;;;;6.82;2.90;;;;;;;19.93;68.26;101519.00;4687965;28;10001401;-51
2022/06/26 11:32:02;;;;;;;6.28;3.20;;;;;;;19.92;67.78;101511.03;5033678;28;20053;-54
2022/06/26 11:34:51;;;;;;;8.68;3.00;;;;;;;19.91;68.61;101504.69;5034568;28;20439;-52
2022/06/26 11:37:40;;;;;;;8.18;3.30;;;;;;;19.88;69.55;101505.31;5046951;28;20057;-52
2022/06/26 11:40:28;;;;;;;10.95;3.45;;;;;;;19.88;70.70;101505.31;5037412;28;20054;-50
2022/06/26 11:43:16;;;;;;;8.38;3.30;;;;;;;19.89;71.62;101504.19;5038224;28;20049;-52
2022/06/26 11:46:04;;;;;;;6.45;2.90;;;;;;;19.92;72.76;101506.31;5046484;28;20447;-51
2022/06/26 11:48:53;;;;;;;8.50;3.10;;;;;;;19.94;71.56;101503.22;5031081;28;20045;-51
2022/06/26 11:51:40;;;;;;;11.48;3.17;;;;;;;19.94;71.03;101515.13;5037320;28;20056;-49
2022/06/26 11:54:28;;;;;;;10.95;3.22;;;;;;;19.90;69.85;101510.53;5034455;28;20052;-47
2022/06/26 11:57:16;;;;;;;7.47;2.90;;;;;;;19.83;70.27;101512.94;5033724;28;20093;-46
2022/06/26 12:00:08;;;;;;;8.88;3.25;;;;;;;19.79;70.80;101512.72;5050653;28;20044;-51
2022/06/26 12:02:56;;;;;;;7.05;2.60;;;;;;;19.74;69.43;101515.63;5049945;28;20419;-50
2022/06/26 12:05:45;;;;;;;11.98;3.90;;;;;;;19.69;69.06;101516.56;5050210;28;20602;-51
2022/06/26 12:08:34;;;;;;;7.53;3.08;;;;;;;19.70;69.96;101520.13;5049777;28;20053;-48
2022/06/26 12:11:21;;;;;;;7.65;2.95;;;;;;;19.66;70.28;101525.44;5038203;28;20056;-51
2022/06/26 12:14:14;;;;;;;7.07;3.17;;;;;;;19.66;71.80;101527.41;5053075;28;20045;-49
2022/06/26 12:17:07;;;;;;;7.50;3.08;;;;;;;19.69;72.44;101529.56;5038336;28;20048;-46
2022/06/26 12:20:04;;;;;;;8.38;3.53;;;;;;;19.72;73.29;101532.53;5033648;28;20042;-49
2022/06/26 12:22:55;;;;;;;6.38;3.13;;;;;;;19.73;74.03;101536.91;5046462;28;20438;-46
2022/06/26 12:25:44;;;;;;;10.00;3.80;;;;;;;19.71;73.63;101538.38;5052975;28;20042;-48
2022/06/26 12:28:32;;;;;;;7.57;3.45;;;;;;;19.64;73.94;101529.66;5049194;28;20126;-48
2022/06/26 12:31:21;;;;;;;7.43;3.05;;;;;;;19.64;73.61;101549.00;5045058;28;20060;-48
2022/06/26 12:34:09;;;;;;;8.70;3.30;;;;;;;19.59;73.31;101547.19;5051154;28;20049;-45
2022/06/26 12:36:56;;;;;;;9.48;3.50;;;;;;;19.49;73.11;101547.41;5051996;28;20064;-47
2022/06/26 12:39:50;;;;;;;10.95;3.53;;;;;;;19.47;73.87;101556.00;5040449;28;20098;-48
2022/06/26 12:42:38;;;;;;;9.18;3.70;;;;;;;19.50;74.30;101541.56;5051929;28;20041;-49
2022/06/26 12:45:25;;;;;;;7.80;3.08;;;;;;;19.56;74.68;101539.50;5052190;28;20056;-48
2022/06/26 12:48:13;;;;;;;9.43;3.40;;;;;;;19.61;75.35;101531.09;5049574;28;20056;-49
2022/06/26 12:50:46;;;;;;;9.60;3.90;;;;;;;19.50;75.11;101532.44;5049777;28;20575;-49
2022/06/26 12:53:34;;;;;;;6.18;3.08;;;;;;;19.41;75.91;101540.69;5041938;28;20415;-46
2022/06/26 12:56:21;;;;;;;7.05;3.40;;;;;;;19.45;76.12;101533.38;5052211;28;20052;-47
2022/06/26 12:59:09;;;;;;;7.63;3.25;;;;;;;19.56;75.42;101536.75;5045320;28;20392;-46
2022/06/26 13:01:57;;;;;;;6.93;3.35;;;;;;;19.62;75.31;101529.97;5051506;28;20064;-47
2022/06/26 13:04:44;;;;;;;3.85;2.75;;;;;;;19.69;75.16;101538.66;5051676;28;20045;-46
2022/06/26 13:07:32;;;;;;;8.25;3.35;;;;;;;19.76;74.76;101541.81;5049555;28;20446;-47
2022/06/26 13:10:20;;;;;;;5.88;3.20;;;;;;;19.78;74.82;101549.81;5042830;28;20067;-50
2022/06/26 13:13:08;;;;;;;11.02;3.30;;;;;;;19.74;73.45;101532.22;5051638;28;20057;-48